< < Back
Terminal Aerodrome Forecast


Current Version              Previous Versions:   1  2  3  4  5  6  7  8  9  

Terminal Aerodrome Forecast

037
FTUS42 KFFC 280333 AAA
TAFMCN
TAF AMD
KMCN 280333Z 2804/2824 35003KT P6SM BKN200
     FM280600 04003KT P6SM BKN200
     FM281500 08009KT P6SM SCT050 BKN120
     FM281800 09010KT P6SM SCT025 BKN050 PROB30 2818/2822 6SM -RA BR
      BKN025
     FM282200 10009KT 6SM -RA BR OVC025=



Latest METAR

488
SAUS80 KWBC 281200
MTRMCN
METAR KMCN 281153Z AUTO 10008KT 10SM CLR 13/09 A2993 RMK AO2 SLP131
T01280089 10133 20122 53021 TSNO


USA.gov is the U.S. government's official web portal to all federal, state and local government web resources and services.